createdAt,value
2022-09-22T00:05:09.486Z,0
2022-09-22T00:10:49.374Z,0
2022-09-22T00:16:30.317Z,100
2022-09-22T00:22:10.959Z,0
2022-09-22T00:27:51.083Z,0
2022-09-22T00:33:30.949Z,0
2022-09-22T00:39:10.611Z,0
2022-09-22T00:44:50.404Z,0
2022-09-22T00:50:30.423Z,0
2022-09-22T00:56:13.199Z,0
2022-09-22T01:01:53.622Z,0
2022-09-22T01:07:34.258Z,0
2022-09-22T01:13:16.586Z,0
2022-09-22T01:18:59.901Z,0
2022-09-22T01:24:42.676Z,0
2022-09-22T01:30:25.733Z,0
2022-09-22T01:36:05.875Z,0
2022-09-22T01:41:46.011Z,0
2022-09-22T01:47:26.657Z,0
2022-09-22T01:53:06.496Z,0
2022-09-22T01:58:46.451Z,0
2022-09-22T02:04:26.835Z,0
2022-09-22T02:10:07.434Z,0
2022-09-22T02:15:47.609Z,0
2022-09-22T02:21:28.109Z,0
2022-09-22T02:27:08.257Z,0
2022-09-22T02:32:48.477Z,0
2022-09-22T02:38:28.190Z,0
2022-09-22T02:44:08.588Z,0
2022-09-22T02:49:49.110Z,0
2022-09-22T02:55:29.071Z,0
2022-09-22T03:01:09.077Z,0
2022-09-22T03:06:49.660Z,0
2022-09-22T03:12:29.488Z,0
2022-09-22T03:26:09.295Z,0
2022-09-22T03:31:49.755Z,0
2022-09-22T03:37:30.008Z,0
2022-09-22T03:43:16.889Z,0
2022-09-22T03:49:00.345Z,0
2022-09-22T03:54:41.592Z,0
2022-09-22T04:00:22.034Z,0
2022-09-22T04:06:02.607Z,0
2022-09-22T04:11:43.114Z,0
2022-09-22T04:17:23.774Z,0
2022-09-22T04:23:25.861Z,0
2022-09-22T04:29:18.057Z,0
2022-09-22T04:35:08.682Z,0
2022-09-22T04:40:51.288Z,0
2022-09-22T04:46:40.196Z,0
2022-09-22T04:52:24.431Z,0
2022-09-22T04:58:07.360Z,0
2022-09-22T05:03:47.467Z,0
2022-09-22T05:09:27.434Z,0
2022-09-22T05:15:07.381Z,0
2022-09-22T05:20:47.578Z,0
2022-09-22T05:26:27.372Z,0
2022-09-22T05:32:10.264Z,0
2022-09-22T05:37:50.528Z,0
2022-09-22T05:43:30.424Z,0
2022-09-22T05:49:10.301Z,0
2022-09-22T05:54:54.450Z,0
2022-09-22T06:00:37.423Z,100
2022-09-22T06:06:18.747Z,100
2022-09-22T06:12:02.367Z,100
2022-09-22T06:17:43.137Z,100
2022-09-22T06:23:23.683Z,100
2022-09-22T06:29:03.781Z,100
2022-09-22T06:34:44.330Z,100
2022-09-22T06:40:25.723Z,100
2022-09-22T06:46:07.900Z,100
2022-09-22T06:51:51.344Z,100
2022-09-22T06:57:31.790Z,0
2022-09-22T07:03:15.515Z,0
2022-09-22T07:08:55.858Z,0
2022-09-22T07:14:39.348Z,0
2022-09-22T07:20:19.775Z,100
2022-09-22T07:26:03.460Z,100
2022-09-22T07:31:43.857Z,100
2022-09-22T07:37:24.644Z,100
2022-09-22T07:43:07.261Z,100
2022-09-22T07:48:47.666Z,100
2022-09-22T07:54:28.023Z,100
2022-09-22T08:00:08.274Z,100
2022-09-22T08:05:49.284Z,100
2022-09-22T08:11:29.280Z,100
2022-09-22T08:17:09.445Z,100
2022-09-22T08:22:53.381Z,100
2022-09-22T08:28:34.078Z,100
2022-09-22T08:34:14.869Z,100
2022-09-22T08:39:54.776Z,100
2022-09-22T08:45:37.988Z,100
2022-09-22T08:51:18.008Z,100
2022-09-22T08:56:58.586Z,100
2022-09-22T09:02:40.308Z,100
2022-09-22T09:08:22.259Z,100
2022-09-22T09:14:02.474Z,100
2022-09-22T09:19:46.778Z,100
2022-09-22T09:25:28.429Z,100
2022-09-22T09:31:08.537Z,100
2022-09-22T09:36:56.384Z,100
2022-09-22T09:42:37.089Z,100
2022-09-22T09:48:18.249Z,100
2022-09-22T09:54:02.174Z,100
2022-09-22T09:59:44.214Z,100
2022-09-22T10:05:32.013Z,96.8
2022-09-22T10:11:13.327Z,93
2022-09-22T10:16:57.444Z,83.3
2022-09-22T10:22:40.111Z,83.6
2022-09-22T10:28:21.067Z,86.7
2022-09-22T10:34:05.336Z,83.7
2022-09-22T10:39:46.731Z,78
2022-09-22T10:45:32.244Z,73.2
2022-09-22T10:51:16.084Z,63.6
2022-09-22T10:57:01.159Z,60
2022-09-22T11:02:43.728Z,60.6
2022-09-22T11:08:24.119Z,52.2
2022-09-22T11:14:04.568Z,59.3
2022-09-22T11:19:46.154Z,53.7
2022-09-22T11:25:29.170Z,50
2022-09-22T11:31:10.056Z,46.4
2022-09-22T11:36:52.064Z,53.8
2022-09-22T11:42:35.245Z,52
2022-09-22T11:48:18.849Z,49.5
2022-09-22T11:54:10.136Z,46.1
2022-09-22T11:59:50.715Z,51.8
2022-09-22T12:05:30.864Z,44.6
2022-09-22T12:11:11.528Z,44.2
2022-09-22T12:16:52.420Z,46.8
2022-09-22T12:22:36.194Z,42.8
2022-09-22T12:28:19.371Z,44.1
2022-09-22T12:34:02.984Z,45.6
2022-09-22T12:39:49.398Z,47.4
2022-09-22T12:45:35.509Z,44.7
2022-09-22T12:51:19.744Z,45.3
2022-09-22T13:02:48.299Z,47.3
2022-09-22T13:08:28.716Z,50.2
2022-09-22T13:14:18.433Z,48.9
2022-09-22T13:20:02.848Z,50
2022-09-22T13:25:46.211Z,48.1
2022-09-22T13:31:32.940Z,50.5
2022-09-22T13:37:17.703Z,50.1
2022-09-22T13:42:57.689Z,51
2022-09-22T13:48:38.194Z,49.9
2022-09-22T13:54:19.245Z,48.7
2022-09-22T13:59:59.408Z,51.4
2022-09-22T14:05:54.108Z,50.9
2022-09-22T14:11:34.631Z,54.4
2022-09-22T14:17:14.765Z,54.4
2022-09-22T14:22:54.993Z,59.4
2022-09-22T14:28:34.826Z,58.9
2022-09-22T14:34:14.870Z,68.7
2022-09-22T14:39:55.261Z,78.4
2022-09-22T14:45:35.814Z,91.9
2022-09-22T14:51:17.251Z,88.1
2022-09-22T14:56:58.456Z,99.2
2022-09-22T15:02:38.833Z,91.9
2022-09-22T15:08:19.883Z,96.9
2022-09-22T15:14:00.098Z,100
2022-09-22T15:19:40.203Z,100
2022-09-22T15:25:20.385Z,100
2022-09-22T15:31:00.598Z,100
2022-09-22T15:36:40.932Z,100
2022-09-22T15:42:21.666Z,100
2022-09-22T15:48:02.346Z,100
2022-09-22T15:53:42.620Z,100
2022-09-22T15:59:22.866Z,100
2022-09-22T16:05:03.411Z,100
2022-09-22T16:10:43.563Z,100
2022-09-22T16:16:23.870Z,100
2022-09-22T16:22:05.107Z,100
2022-09-22T16:27:45.322Z,100
2022-09-22T16:33:25.810Z,100
2022-09-22T16:39:06.829Z,100
2022-09-22T16:44:47.026Z,100
2022-09-22T16:50:30.418Z,100
2022-09-22T16:56:10.905Z,100
2022-09-22T17:01:51.961Z,100
2022-09-22T17:07:33.009Z,100
2022-09-22T17:13:13.902Z,100
2022-09-22T17:19:14.693Z,100
2022-09-22T17:24:54.966Z,100
2022-09-22T17:30:36.186Z,100
2022-09-22T17:36:19.052Z,100
2022-09-22T17:42:09.674Z,100
2022-09-22T17:47:50.136Z,100
2022-09-22T17:53:30.334Z,100
2022-09-22T17:59:10.518Z,100
2022-09-22T18:04:50.922Z,100
2022-09-22T18:10:30.891Z,100
2022-09-22T18:16:11.977Z,100
2022-09-22T18:21:53.353Z,100
2022-09-22T18:27:33.404Z,100
2022-09-22T18:33:13.721Z,100
2022-09-22T18:38:57.104Z,100
2022-09-22T18:44:37.259Z,100
2022-09-22T18:50:17.473Z,100
2022-09-22T18:55:58.853Z,100
2022-09-22T19:01:39.202Z,100
2022-09-22T19:07:20.678Z,100
2022-09-22T19:13:01.086Z,100
2022-09-22T19:18:41.218Z,100
2022-09-22T19:24:23.967Z,100
2022-09-22T19:30:07.416Z,100
2022-09-22T19:35:47.744Z,100
2022-09-22T19:41:27.986Z,100
2022-09-22T19:47:08.581Z,100
2022-09-22T19:52:49.442Z,100
2022-09-22T19:58:35.488Z,100
2022-09-22T20:04:18.936Z,100
2022-09-22T20:09:58.961Z,100
2022-09-22T20:15:48.501Z,100
2022-09-22T20:21:29.506Z,100
2022-09-22T20:27:14.937Z,100
2022-09-22T20:32:56.147Z,100
2022-09-22T20:38:36.536Z,100
2022-09-22T20:44:16.610Z,100
2022-09-22T20:49:57.283Z,100
2022-09-22T20:55:46.660Z,100
2022-09-22T21:01:32.392Z,100
2022-09-22T21:07:16.114Z,100
2022-09-22T21:13:02.684Z,100
2022-09-22T21:18:46.573Z,100
2022-09-22T21:24:26.906Z,100
2022-09-22T21:30:07.220Z,100
2022-09-22T21:35:50.134Z,100
2022-09-22T21:41:30.272Z,100
2022-09-22T21:47:10.803Z,100
2022-09-22T21:52:50.941Z,100
2022-09-22T21:58:31.761Z,100
2022-09-22T22:04:12.499Z,100
2022-09-22T22:09:53.467Z,100
2022-09-22T22:15:33.958Z,100
2022-09-22T22:21:15.094Z,100
2022-09-22T22:26:55.717Z,100
2022-09-22T22:32:36.235Z,100
2022-09-22T22:38:16.798Z,100
2022-09-22T22:43:57.906Z,100
2022-09-22T22:49:38.322Z,100
2022-09-22T22:55:18.626Z,100
2022-09-22T23:00:59.218Z,100
2022-09-22T23:06:40.422Z,100
2022-09-22T23:12:20.788Z,100
2022-09-22T23:18:01.065Z,100
2022-09-22T23:23:41.456Z,100
2022-09-22T23:29:22.081Z,100
2022-09-22T23:35:02.174Z,100
2022-09-22T23:40:42.839Z,100
2022-09-22T23:46:24.235Z,100
2022-09-22T23:52:07.729Z,100
2022-09-22T23:57:51.151Z,100
